sensor_id;sensor_type;location;lat;lon;timestamp;P1;durP1;ratioP1;P2;durP2;ratioP2
57718;SDS011;43561;50.090;18.522;2023-12-28T00:02:49;85.43;;;33.72;;
57718;SDS011;43561;50.090;18.522;2023-12-28T00:12:51;63.58;;;27.95;;
57718;SDS011;43561;50.090;18.522;2023-12-28T00:22:53;47.83;;;24.90;;
57718;SDS011;43561;50.090;18.522;2023-12-28T00:32:55;47.70;;;20.85;;
57718;SDS011;43561;50.090;18.522;2023-12-28T00:42:57;52.90;;;25.40;;
57718;SDS011;43561;50.090;18.522;2023-12-28T00:52:59;64.43;;;24.50;;
57718;SDS011;43561;50.090;18.522;2023-12-28T01:03:01;34.78;;;20.20;;
57718;SDS011;43561;50.090;18.522;2023-12-28T01:13:04;30.23;;;18.50;;
57718;SDS011;43561;50.090;18.522;2023-12-28T01:23:06;34.13;;;19.42;;
57718;SDS011;43561;50.090;18.522;2023-12-28T01:33:08;50.92;;;22.48;;
57718;SDS011;43561;50.090;18.522;2023-12-28T01:43:10;52.78;;;24.73;;
57718;SDS011;43561;50.090;18.522;2023-12-28T01:53:13;41.75;;;23.63;;
57718;SDS011;43561;50.090;18.522;2023-12-28T02:03:15;30.42;;;15.85;;
57718;SDS011;43561;50.090;18.522;2023-12-28T02:13:19;23.85;;;13.55;;
57718;SDS011;43561;50.090;18.522;2023-12-28T02:23:21;22.70;;;10.95;;
57718;SDS011;43561;50.090;18.522;2023-12-28T02:33:25;22.50;;;12.45;;
57718;SDS011;43561;50.090;18.522;2023-12-28T02:43:36;26.15;;;12.23;;
57718;SDS011;43561;50.090;18.522;2023-12-28T02:53:38;28.00;;;17.40;;
57718;SDS011;43561;50.090;18.522;2023-12-28T03:03:40;27.23;;;17.60;;
57718;SDS011;43561;50.090;18.522;2023-12-28T03:13:42;39.10;;;19.42;;
57718;SDS011;43561;50.090;18.522;2023-12-28T03:23:45;31.95;;;16.48;;
57718;SDS011;43561;50.090;18.522;2023-12-28T03:33:47;24.63;;;14.45;;
57718;SDS011;43561;50.090;18.522;2023-12-28T03:43:49;25.05;;;13.93;;
57718;SDS011;43561;50.090;18.522;2023-12-28T03:53:51;50.47;;;20.73;;
57718;SDS011;43561;50.090;18.522;2023-12-28T04:03:53;38.70;;;17.60;;
57718;SDS011;43561;50.090;18.522;2023-12-28T04:13:55;23.17;;;15.15;;
57718;SDS011;43561;50.090;18.522;2023-12-28T04:23:57;26.85;;;14.35;;
57718;SDS011;43561;50.090;18.522;2023-12-28T04:34:00;36.22;;;17.08;;
57718;SDS011;43561;50.090;18.522;2023-12-28T04:44:02;33.20;;;16.17;;
57718;SDS011;43561;50.090;18.522;2023-12-28T04:54:04;28.98;;;13.27;;
57718;SDS011;43561;50.090;18.522;2023-12-28T05:04:06;22.98;;;13.15;;
57718;SDS011;43561;50.090;18.522;2023-12-28T05:14:08;20.63;;;12.85;;
57718;SDS011;43561;50.090;18.522;2023-12-28T05:24:11;24.65;;;14.82;;
57718;SDS011;43561;50.090;18.522;2023-12-28T05:34:14;20.33;;;14.05;;
57718;SDS011;43561;50.090;18.522;2023-12-28T05:44:16;29.67;;;13.07;;
57718;SDS011;43561;50.090;18.522;2023-12-28T05:54:18;26.48;;;13.25;;
57718;SDS011;43561;50.090;18.522;2023-12-28T06:04:20;26.42;;;14.50;;
57718;SDS011;43561;50.090;18.522;2023-12-28T06:14:23;30.52;;;16.23;;
57718;SDS011;43561;50.090;18.522;2023-12-28T06:24:25;34.88;;;15.85;;
57718;SDS011;43561;50.090;18.522;2023-12-28T06:34:27;26.90;;;14.98;;
57718;SDS011;43561;50.090;18.522;2023-12-28T06:44:29;20.65;;;14.13;;
57718;SDS011;43561;50.090;18.522;2023-12-28T06:54:32;41.05;;;18.52;;
57718;SDS011;43561;50.090;18.522;2023-12-28T07:04:34;24.45;;;14.35;;
57718;SDS011;43561;50.090;18.522;2023-12-28T07:14:36;24.60;;;16.88;;
57718;SDS011;43561;50.090;18.522;2023-12-28T07:24:38;30.40;;;18.52;;
57718;SDS011;43561;50.090;18.522;2023-12-28T07:34:40;26.52;;;16.27;;
57718;SDS011;43561;50.090;18.522;2023-12-28T07:44:44;31.00;;;16.92;;
57718;SDS011;43561;50.090;18.522;2023-12-28T07:54:47;37.75;;;18.83;;
57718;SDS011;43561;50.090;18.522;2023-12-28T08:04:49;29.98;;;15.40;;
57718;SDS011;43561;50.090;18.522;2023-12-28T08:14:51;21.83;;;16.00;;
57718;SDS011;43561;50.090;18.522;2023-12-28T08:24:53;23.55;;;14.25;;
57718;SDS011;43561;50.090;18.522;2023-12-28T08:34:56;23.23;;;14.45;;
57718;SDS011;43561;50.090;18.522;2023-12-28T08:44:58;20.95;;;9.23;;
57718;SDS011;43561;50.090;18.522;2023-12-28T08:55:00;24.00;;;14.02;;
57718;SDS011;43561;50.090;18.522;2023-12-28T09:05:02;21.52;;;10.80;;
57718;SDS011;43561;50.090;18.522;2023-12-28T09:15:05;19.48;;;11.70;;
57718;SDS011;43561;50.090;18.522;2023-12-28T09:25:08;19.75;;;11.65;;
57718;SDS011;43561;50.090;18.522;2023-12-28T09:35:10;17.92;;;12.32;;
57718;SDS011;43561;50.090;18.522;2023-12-28T09:45:17;24.35;;;13.38;;
57718;SDS011;43561;50.090;18.522;2023-12-28T09:55:22;35.67;;;14.20;;
57718;SDS011;43561;50.090;18.522;2023-12-28T10:05:24;18.88;;;13.02;;
57718;SDS011;43561;50.090;18.522;2023-12-28T10:15:27;28.35;;;13.48;;
57718;SDS011;43561;50.090;18.522;2023-12-28T10:25:29;26.13;;;15.38;;
57718;SDS011;43561;50.090;18.522;2023-12-28T10:35:33;18.25;;;12.85;;
57718;SDS011;43561;50.090;18.522;2023-12-28T10:45:36;23.92;;;13.65;;
57718;SDS011;43561;50.090;18.522;2023-12-28T10:55:45;19.98;;;15.65;;
57718;SDS011;43561;50.090;18.522;2023-12-28T11:05:54;33.50;;;14.48;;
57718;SDS011;43561;50.090;18.522;2023-12-28T11:15:57;24.20;;;13.30;;
57718;SDS011;43561;50.090;18.522;2023-12-28T11:26:01;23.88;;;14.88;;
57718;SDS011;43561;50.090;18.522;2023-12-28T11:36:07;27.90;;;17.35;;
57718;SDS011;43561;50.090;18.522;2023-12-28T11:46:10;20.73;;;13.05;;
57718;SDS011;43561;50.090;18.522;2023-12-28T11:56:15;21.92;;;11.32;;
57718;SDS011;43561;50.090;18.522;2023-12-28T12:06:18;20.85;;;13.18;;
57718;SDS011;43561;50.090;18.522;2023-12-28T12:16:21;24.27;;;11.68;;
57718;SDS011;43561;50.090;18.522;2023-12-28T12:26:23;22.45;;;11.45;;
57718;SDS011;43561;50.090;18.522;2023-12-28T12:36:25;21.13;;;13.73;;
57718;SDS011;43561;50.090;18.522;2023-12-28T12:46:27;22.48;;;13.02;;
57718;SDS011;43561;50.090;18.522;2023-12-28T12:56:29;27.15;;;14.52;;
57718;SDS011;43561;50.090;18.522;2023-12-28T13:06:33;19.35;;;11.85;;
57718;SDS011;43561;50.090;18.522;2023-12-28T13:16:35;23.00;;;13.02;;
57718;SDS011;43561;50.090;18.522;2023-12-28T13:26:37;19.75;;;10.95;;
57718;SDS011;43561;50.090;18.522;2023-12-28T13:36:39;21.42;;;13.00;;
57718;SDS011;43561;50.090;18.522;2023-12-28T13:46:42;24.42;;;13.35;;
57718;SDS011;43561;50.090;18.522;2023-12-28T13:56:44;26.20;;;13.02;;
57718;SDS011;43561;50.090;18.522;2023-12-28T14:06:46;29.63;;;14.35;;
57718;SDS011;43561;50.090;18.522;2023-12-28T14:16:49;19.05;;;10.88;;
57718;SDS011;43561;50.090;18.522;2023-12-28T14:26:54;22.67;;;12.50;;
57718;SDS011;43561;50.090;18.522;2023-12-28T14:36:57;18.95;;;8.55;;
57718;SDS011;43561;50.090;18.522;2023-12-28T14:46:59;20.67;;;10.98;;
57718;SDS011;43561;50.090;18.522;2023-12-28T14:57:01;29.67;;;13.80;;
57718;SDS011;43561;50.090;18.522;2023-12-28T15:07:03;23.60;;;11.57;;
57718;SDS011;43561;50.090;18.522;2023-12-28T15:17:05;34.42;;;17.05;;
57718;SDS011;43561;50.090;18.522;2023-12-28T15:27:10;26.23;;;13.95;;
57718;SDS011;43561;50.090;18.522;2023-12-28T15:37:12;28.00;;;14.02;;
57718;SDS011;43561;50.090;18.522;2023-12-28T15:47:15;25.73;;;15.88;;
57718;SDS011;43561;50.090;18.522;2023-12-28T15:57:17;35.75;;;20.10;;
57718;SDS011;43561;50.090;18.522;2023-12-28T16:07:19;34.17;;;19.70;;
57718;SDS011;43561;50.090;18.522;2023-12-28T16:17:21;37.15;;;21.63;;
57718;SDS011;43561;50.090;18.522;2023-12-28T16:27:23;39.63;;;24.05;;
57718;SDS011;43561;50.090;18.522;2023-12-28T16:37:25;44.53;;;23.42;;
57718;SDS011;43561;50.090;18.522;2023-12-28T16:47:27;50.45;;;21.85;;
57718;SDS011;43561;50.090;18.522;2023-12-28T16:57:29;46.45;;;22.25;;
57718;SDS011;43561;50.090;18.522;2023-12-28T17:07:31;33.28;;;18.80;;
57718;SDS011;43561;50.090;18.522;2023-12-28T17:17:34;29.02;;;17.35;;
57718;SDS011;43561;50.090;18.522;2023-12-28T17:27:38;37.15;;;17.15;;
57718;SDS011;43561;50.090;18.522;2023-12-28T17:37:47;38.25;;;17.92;;
57718;SDS011;43561;50.090;18.522;2023-12-28T17:58:01;32.97;;;22.60;;
57718;SDS011;43561;50.090;18.522;2023-12-28T18:08:04;39.72;;;20.52;;
57718;SDS011;43561;50.090;18.522;2023-12-28T18:18:06;38.53;;;21.77;;
57718;SDS011;43561;50.090;18.522;2023-12-28T18:28:08;42.47;;;24.60;;
57718;SDS011;43561;50.090;18.522;2023-12-28T18:38:10;34.55;;;19.95;;
57718;SDS011;43561;50.090;18.522;2023-12-28T18:48:13;42.63;;;22.08;;
57718;SDS011;43561;50.090;18.522;2023-12-28T18:58:15;32.60;;;17.77;;
57718;SDS011;43561;50.090;18.522;2023-12-28T19:08:17;36.78;;;17.38;;
57718;SDS011;43561;50.090;18.522;2023-12-28T19:18:19;39.38;;;19.73;;
57718;SDS011;43561;50.090;18.522;2023-12-28T19:28:21;37.30;;;19.25;;
57718;SDS011;43561;50.090;18.522;2023-12-28T19:38:23;39.22;;;21.17;;
57718;SDS011;43561;50.090;18.522;2023-12-28T19:48:25;37.15;;;20.85;;
57718;SDS011;43561;50.090;18.522;2023-12-28T19:58:27;46.80;;;21.33;;
57718;SDS011;43561;50.090;18.522;2023-12-28T20:08:29;42.38;;;22.67;;
57718;SDS011;43561;50.090;18.522;2023-12-28T20:18:31;44.92;;;22.45;;
57718;SDS011;43561;50.090;18.522;2023-12-28T20:28:34;41.75;;;22.10;;
57718;SDS011;43561;50.090;18.522;2023-12-28T20:38:35;44.45;;;24.58;;
57718;SDS011;43561;50.090;18.522;2023-12-28T20:48:38;47.58;;;23.58;;
57718;SDS011;43561;50.090;18.522;2023-12-28T20:58:40;40.70;;;25.08;;
57718;SDS011;43561;50.090;18.522;2023-12-28T21:08:42;61.22;;;33.33;;
57718;SDS011;43561;50.090;18.522;2023-12-28T21:18:44;61.92;;;31.48;;
57718;SDS011;43561;50.090;18.522;2023-12-28T21:28:47;59.58;;;30.08;;
57718;SDS011;43561;50.090;18.522;2023-12-28T21:38:48;54.90;;;29.20;;
57718;SDS011;43561;50.090;18.522;2023-12-28T21:48:50;55.28;;;28.92;;
57718;SDS011;43561;50.090;18.522;2023-12-28T21:58:53;63.50;;;29.92;;
57718;SDS011;43561;50.090;18.522;2023-12-28T22:08:54;63.40;;;35.80;;
57718;SDS011;43561;50.090;18.522;2023-12-28T22:18:56;65.20;;;29.42;;
57718;SDS011;43561;50.090;18.522;2023-12-28T22:28:59;51.28;;;30.58;;
57718;SDS011;43561;50.090;18.522;2023-12-28T22:39:00;50.38;;;27.58;;
57718;SDS011;43561;50.090;18.522;2023-12-28T22:49:02;69.93;;;39.42;;
57718;SDS011;43561;50.090;18.522;2023-12-28T22:59:04;50.17;;;27.13;;
57718;SDS011;43561;50.090;18.522;2023-12-28T23:09:06;48.83;;;23.83;;
57718;SDS011;43561;50.090;18.522;2023-12-28T23:19:08;40.35;;;20.35;;
57718;SDS011;43561;50.090;18.522;2023-12-28T23:29:10;35.13;;;19.98;;
57718;SDS011;43561;50.090;18.522;2023-12-28T23:39:12;31.42;;;15.65;;
57718;SDS011;43561;50.090;18.522;2023-12-28T23:49:14;24.92;;;15.35;;
57718;SDS011;43561;50.090;18.522;2023-12-28T23:59:16;27.67;;;16.40;;
